Time;durP1;ratioP1;P1;durP2;ratioP2;P2;SDS_P1;SDS_P2;PMS_P1;PMS_P2;Temp;Humidity;BMP_temperature;BMP_pressure;BME280_temperature;BME280_humidity;BME280_pressure;Samples;Min_cycle;Max_cycle;Signal;HPM_P1;HPM_P2
2021/12/29 00:00:53;;;;;;;5.22;3.20;;;7.90;48.70;;;;;;5095818;28;20221;-48
2021/12/29 00:03:21;;;;;;;5.43;3.05;;;7.90;48.60;;;;;;5095898;28;20176;-49
2021/12/29 00:05:48;;;;;;;8.75;3.35;;;7.80;48.60;;;;;;5096005;28;20183;-48
2021/12/29 00:08:15;;;;;;;7.13;3.03;;;7.80;48.60;;;;;;5096778;28;20165;-48
2021/12/29 00:10:43;;;;;;;3.13;2.55;;;7.80;48.60;;;;;;5096775;28;20166;-49
2021/12/29 00:13:10;;;;;;;4.75;3.15;;;7.80;48.70;;;;;;5095929;28;20479;-48
2021/12/29 00:15:38;;;;;;;4.03;2.35;;;7.80;48.60;;;;;;5097393;28;20247;-48
2021/12/29 00:18:06;;;;;;;4.15;2.20;;;7.70;48.80;;;;;;5095855;28;20164;-48
2021/12/29 00:20:33;;;;;;;3.78;2.40;;;7.70;48.70;;;;;;5096695;28;20202;-49
2021/12/29 00:23:02;;;;;;;4.88;4.07;;;7.70;48.60;;;;;;5095651;28;20172;-48
2021/12/29 00:25:30;;;;;;;3.25;2.25;;;7.70;48.60;;;;;;5096354;28;20294;-48
2021/12/29 00:27:59;;;;;;;5.00;2.78;;;7.70;48.60;;;;;;5096323;28;20623;-47
2021/12/29 00:30:27;;;;;;;5.13;2.72;;;7.70;48.40;;;;;;5096417;28;20250;-48
2021/12/29 00:32:56;;;;;;;4.70;2.53;;;7.70;48.50;;;;;;5095793;28;20466;-49
2021/12/29 00:35:24;;;;;;;4.25;2.90;;;7.60;48.40;;;;;;5095397;28;20597;-48
2021/12/29 00:37:51;;;;;;;7.32;3.47;;;7.60;48.50;;;;;;5096244;28;20164;-48
2021/12/29 00:40:19;;;;;;;5.53;3.20;;;7.60;48.50;;;;;;5095899;28;20171;-48
2021/12/29 00:42:47;;;;;;;7.72;4.32;;;7.60;48.60;;;;;;5096371;28;20206;-48
2021/12/29 00:45:14;;;;;;;3.25;1.60;;;7.60;48.60;;;;;;5095916;28;20593;-48
2021/12/29 00:47:42;;;;;;;3.25;2.08;;;7.50;48.60;;;;;;5095997;28;20174;-48
2021/12/29 00:50:15;;;;;;;4.25;3.75;;;7.60;48.60;;;;;;5078574;28;20160;-48
2021/12/29 00:52:47;;;;;;;5.65;2.25;;;7.60;48.40;;;;;;5095103;28;20593;-48
2021/12/29 00:55:16;;;;;;;6.75;3.38;;;7.60;48.40;;;;;;5078979;28;20627;-49
2021/12/29 00:57:45;;;;;;;5.22;3.13;;;7.60;48.50;;;;;;5095740;28;20165;-48
2021/12/29 01:00:19;;;;;;;4.45;2.28;;;7.70;48.70;;;;;;5094940;28;20661;-48
2021/12/29 01:02:46;;;;;;;5.63;2.95;;;7.60;48.40;;;;;;5095131;28;20168;-48
2021/12/29 01:05:15;;;;;;;5.35;3.10;;;7.70;48.40;;;;;;5094807;28;20281;-49
2021/12/29 01:07:49;;;;;;;7.00;3.42;;;7.70;48.30;;;;;;5095589;28;20156;-48
2021/12/29 01:10:18;;;;;;;3.88;2.42;;;7.70;48.30;;;;;;5079020;28;20256;-48
2021/12/29 01:12:54;;;;;;;8.52;4.07;;;7.70;48.30;;;;;;5093954;28;20647;-48
2021/12/29 01:15:31;;;;;;;7.03;3.10;;;7.70;48.30;;;;;;5078822;28;20565;-48
2021/12/29 01:18:00;;;;;;;6.00;2.92;;;7.80;48.20;;;;;;5094694;28;20164;-49
2021/12/29 01:20:29;;;;;;;3.58;2.17;;;7.70;48.20;;;;;;5094761;28;20606;-48
2021/12/29 01:22:58;;;;;;;4.53;1.60;;;7.80;48.10;;;;;;5095524;28;20168;-48
2021/12/29 01:25:26;;;;;;;6.63;2.63;;;7.80;48.00;;;;;;5094422;28;20294;-48
2021/12/29 01:27:54;;;;;;;5.63;3.00;;;7.80;48.10;;;;;;5094684;28;20169;-48
2021/12/29 01:30:21;;;;;;;9.85;3.28;;;7.80;48.00;;;;;;5095312;28;20169;-48
2021/12/29 01:32:49;;;;;;;5.32;2.80;;;7.80;48.10;;;;;;5094317;28;20153;-49
2021/12/29 01:35:16;;;;;;;4.22;2.35;;;7.80;48.00;;;;;;5094233;28;20216;-49
2021/12/29 01:37:43;;;;;;;3.40;1.95;;;7.90;48.10;;;;;;5094272;28;20213;-48
2021/12/29 01:40:15;;;;;;;3.55;2.40;;;7.90;48.00;;;;;;5095104;28;20259;-48
2021/12/29 01:42:43;;;;;;;2.90;2.38;;;7.90;48.00;;;;;;5094631;28;20172;-49
2021/12/29 01:45:11;;;;;;;2.67;1.70;;;8.00;47.80;;;;;;5094084;28;20280;-48
2021/12/29 01:47:39;;;;;;;6.25;2.33;;;8.00;47.80;;;;;;5077513;28;20239;-48
2021/12/29 01:50:09;;;;;;;5.47;3.20;;;8.00;47.70;;;;;;5094113;28;20317;-49
2021/12/29 01:52:39;;;;;;;3.10;2.25;;;8.10;47.60;;;;;;5094289;28;20710;-48
2021/12/29 01:55:13;;;;;;;5.97;2.75;;;8.10;47.70;;;;;;5094945;28;20202;-48
2021/12/29 01:57:41;;;;;;;6.28;4.35;;;8.10;47.70;;;;;;5095133;28;20585;-48
2021/12/29 02:00:15;;;;;;;4.90;3.78;;;8.10;47.70;;;;;;5060624;28;20245;-47
2021/12/29 02:02:42;;;;;;;6.20;2.78;;;8.10;47.70;;;;;;5094876;28;20597;-49
2021/12/29 02:05:10;;;;;;;2.28;2.08;;;8.10;47.70;;;;;;5077215;28;20525;-48
2021/12/29 02:07:37;;;;;;;8.02;5.80;;;8.10;47.70;;;;;;5094906;28;20639;-49
2021/12/29 02:10:07;;;;;;;3.97;2.58;;;8.10;47.60;;;;;;5093935;28;20164;-49
2021/12/29 02:12:34;;;;;;;4.57;1.80;;;8.20;47.60;;;;;;5094753;28;20160;-48
2021/12/29 02:15:02;;;;;;;4.57;3.15;;;8.20;47.60;;;;;;5094042;28;20194;-49
2021/12/29 02:17:29;;;;;;;6.93;3.17;;;8.20;47.60;;;;;;5093873;28;20211;-48
2021/12/29 02:20:05;;;;;;;2.28;1.38;;;8.20;47.70;;;;;;5094773;28;20254;-48
2021/12/29 02:25:21;;;;;;;5.47;2.90;;;8.10;47.60;;;;;;5097315;28;20190;-49
2021/12/29 02:27:54;;;;;;;3.25;1.98;;;8.10;47.60;;;;;;5083633;28;20248;-49
2021/12/29 02:30:26;;;;;;;4.78;2.08;;;8.10;47.70;;;;;;5097998;28;20223;-48
2021/12/29 02:32:57;;;;;;;3.85;2.10;;;8.10;47.60;;;;;;5097832;28;20164;-48
2021/12/29 02:35:24;;;;;;;4.68;3.08;;;8.00;47.70;;;;;;5081185;28;20176;-48
2021/12/29 02:37:51;;;;;;;5.80;3.00;;;8.00;47.80;;;;;;5097547;28;20176;-48
2021/12/29 02:40:19;;;;;;;6.15;3.00;;;8.00;47.80;;;;;;5098182;28;20553;-48
2021/12/29 02:42:47;;;;;;;4.97;2.63;;;7.90;48.10;;;;;;5097646;28;20579;-49
2021/12/29 02:45:19;;;;;;;4.28;2.95;;;7.90;47.90;;;;;;5098522;28;20517;-48
2021/12/29 02:47:47;;;;;;;4.07;3.17;;;7.90;47.90;;;;;;5081099;28;20160;-48
2021/12/29 02:50:17;;;;;;;4.13;2.60;;;7.90;48.00;;;;;;5097593;28;20164;-48
2021/12/29 02:52:46;;;;;;;3.60;2.70;;;7.90;48.00;;;;;;5097199;28;20224;-49
2021/12/29 02:55:14;;;;;;;3.53;3.20;;;7.90;48.00;;;;;;5097599;28;20172;-49
2021/12/29 02:57:42;;;;;;;3.63;1.73;;;7.90;48.00;;;;;;5097327;28;20168;-49
2021/12/29 03:00:14;;;;;;;9.45;4.07;;;7.90;48.00;;;;;;5097173;28;20171;-49
2021/12/29 03:02:42;;;;;;;5.13;2.72;;;8.00;48.20;;;;;;5097441;28;20167;-50
2021/12/29 03:05:10;;;;;;;3.03;2.15;;;7.90;48.30;;;;;;5080224;28;20223;-48
2021/12/29 03:07:37;;;;;;;4.93;2.30;;;7.90;48.40;;;;;;5098203;28;20160;-48
2021/12/29 03:10:05;;;;;;;8.18;4.72;;;8.00;48.40;;;;;;5080467;28;20239;-48
2021/12/29 03:12:32;;;;;;;4.05;1.88;;;8.00;48.40;;;;;;5097041;28;20567;-48
2021/12/29 03:15:00;;;;;;;4.82;2.58;;;7.90;48.50;;;;;;5097883;28;20169;-48
2021/12/29 03:17:27;;;;;;;6.30;3.40;;;8.00;48.60;;;;;;5097694;28;20175;-48
2021/12/29 03:19:54;;;;;;;2.65;2.20;;;8.00;48.50;;;;;;5080046;28;20159;-48
2021/12/29 03:22:22;;;;;;;3.40;2.65;;;8.10;48.50;;;;;;5097642;28;20547;-49
2021/12/29 03:24:49;;;;;;;4.95;2.40;;;8.10;48.40;;;;;;5098060;28;20252;-49
2021/12/29 03:27:18;;;;;;;5.18;2.58;;;8.10;48.40;;;;;;5097625;28;20658;-48
2021/12/29 03:29:45;;;;;;;10.68;3.45;;;8.10;48.40;;;;;;5080056;28;20506;-48
2021/12/29 03:32:21;;;;;;;6.95;3.28;;;8.10;48.50;;;;;;5097888;28;20164;-48
2021/12/29 03:34:49;;;;;;;6.15;3.30;;;8.10;48.50;;;;;;5080293;28;20167;-48
2021/12/29 03:37:16;;;;;;;2.97;2.35;;;8.10;48.60;;;;;;5096290;28;20225;-49
2021/12/29 03:39:43;;;;;;;7.43;4.43;;;8.00;48.50;;;;;;5097249;28;20176;-48
2021/12/29 03:42:11;;;;;;;6.68;4.22;;;8.00;48.80;;;;;;5096311;28;20261;-48
2021/12/29 03:44:38;;;;;;;8.60;3.35;;;8.00;48.90;;;;;;5097118;28;20196;-48
2021/12/29 03:47:06;;;;;;;4.75;2.53;;;8.00;48.70;;;;;;5097297;28;20164;-49
2021/12/29 03:49:33;;;;;;;6.13;3.83;;;8.00;48.70;;;;;;5097012;28;20183;-48
2021/12/29 03:52:02;;;;;;;8.10;3.35;;;8.00;48.80;;;;;;5097124;28;20184;-48
2021/12/29 03:54:29;;;;;;;2.85;1.95;;;8.10;48.80;;;;;;5096142;28;20258;-47
2021/12/29 03:57:00;;;;;;;9.73;5.40;;;8.00;48.90;;;;;;5096338;28;20179;-49
2021/12/29 03:59:28;;;;;;;4.35;3.50;;;8.00;48.70;;;;;;5079655;28;20183;-48
2021/12/29 04:01:56;;;;;;;4.15;2.63;;;8.00;48.80;;;;;;5079450;28;20160;-49
2021/12/29 04:04:23;;;;;;;6.30;3.55;;;8.00;48.70;;;;;;5096021;28;20194;-48
2021/12/29 04:06:51;;;;;;;8.45;4.63;;;8.00;48.60;;;;;;5097157;28;20198;-48
2021/12/29 04:09:19;;;;;;;5.80;4.45;;;8.10;48.60;;;;;;5095859;28;20168;-49
2021/12/29 04:11:50;;;;;;;5.68;1.98;;;8.10;48.60;;;;;;5095658;28;20173;-49
2021/12/29 04:14:25;;;;;;;7.75;3.75;;;8.00;48.60;;;;;;5096533;28;20251;-48
2021/12/29 04:16:57;;;;;;;5.47;3.65;;;8.00;48.50;;;;;;5079653;28;20160;-49
2021/12/29 04:19:40;;;;;;;6.75;3.83;;;8.00;48.50;;;;;;5095822;28;20171;-48
2021/12/29 04:22:09;;;;;;;3.92;1.85;;;8.00;48.50;;;;;;5095618;28;20578;-48
2021/12/29 04:24:36;;;;;;;5.38;3.20;;;8.10;48.50;;;;;;5096498;28;20221;-48
2021/12/29 04:27:06;;;;;;;6.85;2.95;;;8.10;48.50;;;;;;5095750;28;20191;-48
2021/12/29 04:29:33;;;;;;;3.78;2.50;;;8.10;48.40;;;;;;5095558;28;20170;-49
2021/12/29 04:32:01;;;;;;;3.72;2.50;;;8.10;48.40;;;;;;5096350;28;20191;-48
2021/12/29 04:34:28;;;;;;;4.35;2.40;;;8.10;48.40;;;;;;5096414;28;20584;-48
2021/12/29 04:36:56;;;;;;;5.75;2.70;;;8.10;48.60;;;;;;5096195;28;20191;-48
2021/12/29 04:39:23;;;;;;;4.85;2.22;;;8.00;48.50;;;;;;5095217;28;20164;-47
2021/12/29 04:41:51;;;;;;;5.18;2.55;;;8.00;48.50;;;;;;5095832;28;20656;-48
2021/12/29 04:44:19;;;;;;;5.40;3.33;;;8.00;48.50;;;;;;5096053;28;20168;-48
2021/12/29 04:46:47;;;;;;;6.45;4.00;;;8.00;48.50;;;;;;5095977;28;20660;-48
2021/12/29 04:49:21;;;;;;;6.90;3.50;;;8.00;48.40;;;;;;5095067;28;20247;-49
2021/12/29 04:52:03;;;;;;;4.30;3.13;;;8.10;48.50;;;;;;5096055;28;20164;-48
2021/12/29 04:54:31;;;;;;;6.70;2.47;;;8.00;48.60;;;;;;5080159;28;20581;-49
2021/12/29 04:56:59;;;;;;;7.00;3.03;;;8.00;48.80;;;;;;5095214;28;20544;-49
2021/12/29 04:59:28;;;;;;;8.40;3.65;;;8.00;48.60;;;;;;5095179;28;20605;-48
2021/12/29 05:01:55;;;;;;;2.80;2.22;;;8.00;48.80;;;;;;5094876;28;20164;-48
2021/12/29 05:04:31;;;;;;;7.20;4.20;;;8.00;48.70;;;;;;5095782;28;20179;-49
2021/12/29 05:09:45;;;;;;;8.32;4.15;;;8.00;48.90;;;;;;5095243;28;20167;-48
2021/12/29 05:12:13;;;;;;;2.78;2.33;;;8.00;48.90;;;;;;5094647;28;20163;-48
2021/12/29 05:14:41;;;;;;;6.13;3.25;;;8.00;48.80;;;;;;5095397;28;20225;-48
2021/12/29 05:17:08;;;;;;;4.30;3.25;;;8.00;48.90;;;;;;5095778;28;20255;-48
2021/12/29 05:19:36;;;;;;;2.95;1.73;;;8.00;48.80;;;;;;5095437;28;20583;-48
2021/12/29 05:22:04;;;;;;;11.45;4.00;;;8.10;48.90;;;;;;5095609;28;20212;-48
2021/12/29 05:24:31;;;;;;;8.10;3.60;;;8.10;48.90;;;;;;5095375;28;20274;-48
2021/12/29 05:26:59;;;;;;;2.90;1.80;;;8.10;48.90;;;;;;5095296;28;20619;-49
2021/12/29 05:29:27;;;;;;;2.38;1.73;;;8.10;48.90;;;;;;5095421;28;20470;-48
2021/12/29 05:31:54;;;;;;;7.60;3.63;;;8.10;48.80;;;;;;5094299;28;20167;-48
2021/12/29 05:34:22;;;;;;;8.68;4.20;;;8.10;48.90;;;;;;5094305;28;20165;-47
2021/12/29 05:36:49;;;;;;;4.13;2.00;;;8.10;48.90;;;;;;5094460;28;20168;-50
2021/12/29 05:39:16;;;;;;;4.72;2.17;;;8.10;48.90;;;;;;5095110;28;20225;-48
2021/12/29 05:41:44;;;;;;;3.28;2.35;;;8.10;48.90;;;;;;5093979;28;20237;-48
2021/12/29 05:44:11;;;;;;;5.70;3.45;;;8.10;49.00;;;;;;5094899;28;20165;-49
2021/12/29 05:46:39;;;;;;;2.55;1.40;;;8.10;48.90;;;;;;5094957;28;20522;-48
2021/12/29 05:49:06;;;;;;;2.88;2.55;;;8.10;48.90;;;;;;5095012;28;20172;-49
2021/12/29 05:51:34;;;;;;;3.97;2.20;;;8.20;48.90;;;;;;5094093;28;20220;-48
2021/12/29 05:54:01;;;;;;;10.68;3.55;;;8.20;48.90;;;;;;5094905;28;20598;-48
2021/12/29 05:56:29;;;;;;;3.75;2.60;;;8.20;49.00;;;;;;5094143;28;20175;-48
2021/12/29 05:58:59;;;;;;;3.80;3.00;;;8.10;49.00;;;;;;5094359;28;20194;-49
2021/12/29 06:01:28;;;;;;;4.07;3.65;;;8.10;49.00;;;;;;5094860;28;20180;-48
2021/12/29 06:03:56;;;;;;;6.05;2.95;;;8.10;49.10;;;;;;5093959;28;20175;-48
2021/12/29 06:06:23;;;;;;;5.43;2.42;;;8.10;49.80;;;;;;5077468;28;20249;-48
2021/12/29 06:08:51;;;;;;;7.40;4.70;;;8.10;49.30;;;;;;5094132;28;20168;-48
2021/12/29 06:11:18;;;;;;;3.13;2.83;;;8.10;49.10;;;;;;5093805;28;20239;-48
2021/12/29 06:13:46;;;;;;;9.10;3.70;;;8.10;49.20;;;;;;5094821;28;20574;-49
2021/12/29 06:16:13;;;;;;;2.67;2.40;;;8.10;49.20;;;;;;5093811;28;20181;-48
2021/12/29 06:18:40;;;;;;;7.00;3.30;;;8.10;49.20;;;;;;5094657;28;20198;-48
2021/12/29 06:21:07;;;;;;;4.55;2.28;;;8.10;49.10;;;;;;5094892;28;20164;-48
2021/12/29 06:23:34;;;;;;;2.95;1.67;;;8.10;49.30;;;;;;5077169;28;20198;-50
2021/12/29 06:26:02;;;;;;;5.93;3.30;;;8.10;49.30;;;;;;5094567;28;20547;-49
2021/12/29 06:28:29;;;;;;;5.90;3.33;;;8.10;49.70;;;;;;5093970;28;20213;-48
2021/12/29 06:30:57;;;;;;;3.58;1.90;;;8.10;50.30;;;;;;5094898;28;20637;-48
2021/12/29 06:33:24;;;;;;;4.05;2.50;;;8.10;49.50;;;;;;5094658;28;20190;-48
2021/12/29 06:35:51;;;;;;;4.53;3.17;;;8.10;49.50;;;;;;5094154;28;20249;-48
2021/12/29 06:38:19;;;;;;;5.68;3.10;;;8.10;49.50;;;;;;5094516;28;20261;-48
2021/12/29 06:40:46;;;;;;;9.35;3.47;;;8.10;49.90;;;;;;5093584;28;20223;-48
2021/12/29 06:43:13;;;;;;;4.55;2.28;;;8.10;50.60;;;;;;5093847;28;20152;-48
2021/12/29 06:45:41;;;;;;;5.38;3.92;;;8.10;49.90;;;;;;5093852;28;20200;-47
2021/12/29 06:48:08;;;;;;;8.48;3.03;;;8.10;49.70;;;;;;5093718;28;20172;-49
2021/12/29 06:50:36;;;;;;;6.50;2.83;;;8.10;49.80;;;;;;5094593;28;20593;-49
2021/12/29 06:53:03;;;;;;;2.53;1.42;;;8.10;49.70;;;;;;5094253;28;20560;-49
2021/12/29 06:55:31;;;;;;;7.63;3.28;;;8.10;49.70;;;;;;5093373;28;20196;-48
2021/12/29 06:57:59;;;;;;;3.60;2.70;;;8.10;49.60;;;;;;5094345;28;20172;-48
2021/12/29 07:00:27;;;;;;;5.53;3.85;;;8.20;49.60;;;;;;5094599;28;20230;-49
2021/12/29 07:02:54;;;;;;;5.95;3.00;;;8.20;49.70;;;;;;5094440;28;20642;-48
2021/12/29 07:05:22;;;;;;;6.43;4.97;;;8.20;49.50;;;;;;5094638;28;20196;-49
2021/12/29 07:07:50;;;;;;;4.78;2.67;;;8.20;49.60;;;;;;5093375;28;20171;-48
2021/12/29 07:10:17;;;;;;;5.10;3.00;;;8.20;49.50;;;;;;5094771;28;20160;-48
2021/12/29 07:12:45;;;;;;;3.78;2.60;;;8.30;49.60;;;;;;5096998;28;20165;-48
2021/12/29 07:15:12;;;;;;;3.88;2.63;;;8.30;49.50;;;;;;5097737;28;20172;-49
2021/12/29 07:17:40;;;;;;;4.43;2.70;;;8.30;49.40;;;;;;5097930;28;20171;-49
2021/12/29 07:20:07;;;;;;;5.18;4.68;;;8.30;49.40;;;;;;5097583;28;20164;-48
2021/12/29 07:22:35;;;;;;;7.10;3.20;;;8.30;49.50;;;;;;5097658;28;20168;-48
2021/12/29 07:25:03;;;;;;;7.85;3.63;;;8.30;49.50;;;;;;5096814;28;20192;-49
2021/12/29 07:27:31;;;;;;;6.72;3.10;;;8.30;49.60;;;;;;5096568;28;20232;-48
2021/12/29 07:29:58;;;;;;;4.13;3.75;;;8.30;49.50;;;;;;5096738;28;20176;-48
2021/12/29 07:32:27;;;;;;;6.43;3.20;;;8.30;49.50;;;;;;5096777;28;20604;-48
2021/12/29 07:34:54;;;;;;;5.97;3.25;;;8.40;49.60;;;;;;5097498;28;20515;-48
2021/12/29 07:37:22;;;;;;;5.97;2.60;;;8.30;49.70;;;;;;5096485;28;20179;-48
2021/12/29 07:39:49;;;;;;;4.60;2.47;;;8.30;49.70;;;;;;5097302;28;20160;-49
2021/12/29 07:42:16;;;;;;;6.63;2.65;;;8.30;49.80;;;;;;5097141;28;20208;-49
2021/12/29 07:44:46;;;;;;;5.20;2.70;;;8.30;49.80;;;;;;5097107;28;20215;-48
2021/12/29 07:47:14;;;;;;;3.70;2.20;;;8.30;49.70;;;;;;5096131;28;20506;-49
2021/12/29 07:49:42;;;;;;;6.28;3.33;;;8.30;49.80;;;;;;5097884;28;20160;-49
2021/12/29 07:52:10;;;;;;;5.78;3.28;;;8.30;49.80;;;;;;5097103;28;20489;-49
2021/12/29 07:54:37;;;;;;;6.95;3.78;;;8.30;49.80;;;;;;5097007;28;20501;-48
2021/12/29 07:57:04;;;;;;;5.78;2.88;;;8.40;49.80;;;;;;5096937;28;20251;-48
2021/12/29 07:59:32;;;;;;;3.50;2.75;;;8.40;49.80;;;;;;5097107;28;20175;-48
2021/12/29 08:01:59;;;;;;;5.10;2.47;;;8.40;49.70;;;;;;5096025;28;20538;-49
2021/12/29 08:04:27;;;;;;;5.32;2.65;;;8.40;50.00;;;;;;5097258;28;20251;-48
2021/12/29 08:06:54;;;;;;;2.88;1.88;;;8.30;50.20;;;;;;5096936;28;20228;-48
2021/12/29 08:09:22;;;;;;;8.10;3.22;;;8.30;50.00;;;;;;5095987;28;20172;-48
2021/12/29 08:11:50;;;;;;;6.50;3.38;;;8.30;50.00;;;;;;5096703;28;20156;-50
2021/12/29 08:14:18;;;;;;;7.45;3.03;;;8.40;50.00;;;;;;5095753;28;20164;-49
2021/12/29 08:16:46;;;;;;;7.07;2.95;;;8.40;50.00;;;;;;5095770;28;20251;-48
2021/12/29 08:19:14;;;;;;;4.18;3.00;;;8.40;49.90;;;;;;5096493;28;20593;-48
2021/12/29 08:21:42;;;;;;;8.52;3.33;;;8.50;49.90;;;;;;5095263;28;20169;-48
2021/12/29 08:24:09;;;;;;;3.72;2.22;;;8.50;49.80;;;;;;5095664;28;20584;-48
2021/12/29 08:26:37;;;;;;;8.52;4.10;;;8.60;49.90;;;;;;5096420;28;20164;-48
2021/12/29 08:29:04;;;;;;;2.80;2.05;;;8.60;49.80;;;;;;5096792;28;20164;-49
2021/12/29 08:31:33;;;;;;;7.20;3.75;;;8.60;49.80;;;;;;5095614;28;20172;-48
2021/12/29 08:34:00;;;;;;;8.30;5.47;;;8.60;49.80;;;;;;5095297;28;20172;-49
2021/12/29 08:36:28;;;;;;;7.45;3.90;;;8.70;49.90;;;;;;5095414;28;20161;-50
2021/12/29 08:38:55;;;;;;;15.23;4.97;;;8.80;49.90;;;;;;5096154;28;20164;-48
2021/12/29 08:41:23;;;;;;;2.63;2.40;;;8.80;49.90;;;;;;5095656;28;20257;-48
2021/12/29 08:43:51;;;;;;;11.65;3.55;;;8.90;49.90;;;;;;5095659;28;20168;-49
2021/12/29 08:46:19;;;;;;;4.55;3.88;;;9.00;49.70;;;;;;5096120;28;20205;-49
2021/12/29 08:48:47;;;;;;;4.82;2.92;;;9.00;49.60;;;;;;5095937;28;20505;-48
2021/12/29 08:51:15;;;;;;;8.05;4.32;;;9.00;49.60;;;;;;5078301;28;20161;-50
2021/12/29 08:53:43;;;;;;;5.72;3.28;;;9.10;49.60;;;;;;5095170;28;20603;-49
2021/12/29 08:56:10;;;;;;;2.97;2.20;;;9.10;49.50;;;;;;5094971;28;20504;-48
2021/12/29 08:58:38;;;;;;;6.55;2.50;;;9.10;49.60;;;;;;5095970;28;20181;-49
2021/12/29 09:01:06;;;;;;;5.00;2.67;;;9.10;49.60;;;;;;5095768;28;20164;-48
2021/12/29 09:03:34;;;;;;;2.42;2.20;;;9.10;50.20;;;;;;5094829;28;20192;-49
2021/12/29 09:06:02;;;;;;;6.28;4.20;;;9.10;49.60;;;;;;5094888;28;20251;-49
2021/12/29 09:08:30;;;;;;;4.63;2.92;;;9.10;49.60;;;;;;5094895;28;20200;-48
2021/12/29 09:10:57;;;;;;;5.18;3.22;;;9.10;49.90;;;;;;5095635;28;20168;-48
2021/12/29 09:13:25;;;;;;;5.07;2.63;;;9.20;49.50;;;;;;5094516;28;20499;-49
2021/12/29 09:15:56;;;;;;;2.95;1.83;;;9.20;49.60;;;;;;5095456;28;20176;-49
2021/12/29 09:18:29;;;;;;;5.03;3.58;;;9.20;49.70;;;;;;5095726;28;20503;-47
2021/12/29 09:21:03;;;;;;;13.73;3.08;;;9.20;49.80;;;;;;5077726;28;20193;-48
2021/12/29 09:23:30;;;;;;;8.82;2.00;;;9.30;49.90;;;;;;5078121;28;20184;-49
2021/12/29 09:25:57;;;;;;;3.90;2.53;;;9.30;49.80;;;;;;5094265;28;20584;-47
2021/12/29 09:28:25;;;;;;;3.70;2.80;;;9.40;49.70;;;;;;5095445;28;20251;-49
2021/12/29 09:30:54;;;;;;;8.57;3.33;;;9.40;49.50;;;;;;5094628;28;20166;-50
2021/12/29 09:33:21;;;;;;;5.40;3.15;;;9.40;49.50;;;;;;5094498;28;20251;-49
2021/12/29 09:35:52;;;;;;;8.60;3.55;;;9.40;49.60;;;;;;5094283;28;20167;-48
2021/12/29 09:38:20;;;;;;;4.95;3.08;;;9.40;49.40;;;;;;5094384;28;20200;-48
2021/12/29 09:40:49;;;;;;;5.50;3.25;;;9.40;49.40;;;;;;5094978;28;20219;-48
2021/12/29 09:43:17;;;;;;;8.88;3.50;;;9.40;49.40;;;;;;5094098;28;20177;-49
2021/12/29 09:45:47;;;;;;;5.05;3.03;;;9.40;49.30;;;;;;5094262;28;20206;-49
2021/12/29 09:48:15;;;;;;;9.02;4.18;;;9.50;49.50;;;;;;5094087;28;20201;-48
2021/12/29 09:50:45;;;;;;;5.78;2.60;;;9.50;49.50;;;;;;5077452;28;20605;-48
2021/12/29 09:53:12;;;;;;;3.70;2.83;;;9.50;49.50;;;;;;5095223;28;20282;-48
2021/12/29 09:55:41;;;;;;;6.00;3.33;;;9.50;49.50;;;;;;5077439;28;20514;-49
2021/12/29 09:58:08;;;;;;;4.00;2.20;;;9.50;49.60;;;;;;5094412;28;20470;-49
2021/12/29 10:00:50;;;;;;;11.38;3.47;;;9.60;49.70;;;;;;5094080;28;20217;-49
2021/12/29 10:03:20;;;;;;;4.05;2.63;;;9.50;49.70;;;;;;5094949;28;20184;-48
2021/12/29 10:05:49;;;;;;;7.15;4.90;;;9.50;49.60;;;;;;5093916;28;20193;-48
2021/12/29 10:08:23;;;;;;;4.85;3.15;;;9.50;49.70;;;;;;5093981;28;20585;-48
2021/12/29 10:10:54;;;;;;;5.32;3.63;;;9.50;49.80;;;;;;5094166;28;20165;-49
2021/12/29 10:13:21;;;;;;;4.35;3.15;;;9.50;49.90;;;;;;5060632;28;20627;-49
2021/12/29 10:15:54;;;;;;;4.32;2.50;;;9.50;50.10;;;;;;5094892;28;20281;-48
2021/12/29 10:18:26;;;;;;;4.70;2.92;;;9.50;50.10;;;;;;5094148;28;20168;-50
2021/12/29 10:20:57;;;;;;;4.03;2.55;;;9.50;50.10;;;;;;5077560;28;20152;-49
2021/12/29 10:23:29;;;;;;;11.00;3.65;;;9.50;50.30;;;;;;5061117;28;20182;-49
2021/12/29 10:26:05;;;;;;;8.00;3.83;;;9.50;50.50;;;;;;5094640;28;20195;-49
2021/12/29 10:28:34;;;;;;;7.72;3.00;;;9.50;50.60;;;;;;5078677;28;20588;-50
2021/12/29 10:31:07;;;;;;;5.47;3.75;;;9.50;50.70;;;;;;5094771;28;20189;-50
2021/12/29 10:33:41;;;;;;;3.88;2.75;;;9.50;50.80;;;;;;5077472;28;20183;-49
2021/12/29 10:36:25;;;;;;;3.60;2.50;;;9.50;50.90;;;;;;5093671;28;20198;-49
2021/12/29 10:39:09;;;;;;;6.10;4.60;;;9.50;50.90;;;;;;5078697;28;20165;-49
2021/12/29 10:42:02;;;;;;;5.50;3.42;;;9.50;50.80;;;;;;5093681;28;20211;-49
2021/12/29 10:44:44;;;;;;;5.18;2.58;;;9.50;51.00;;;;;;5094315;28;20158;-49
2021/12/29 10:47:23;;;;;;;5.95;3.80;;;9.50;51.00;;;;;;5098432;28;20163;-49
2021/12/29 10:50:05;;;;;;;3.80;2.63;;;9.50;51.10;;;;;;5098466;28;20157;-49
2021/12/29 10:52:37;;;;;;;6.13;4.30;;;9.50;51.30;;;;;;5097320;28;20148;-49
2021/12/29 10:55:10;;;;;;;6.05;3.75;;;9.50;51.60;;;;;;5097487;28;20244;-50
2021/12/29 10:57:38;;;;;;;6.78;3.22;;;9.40;51.50;;;;;;5080939;28;20591;-49
2021/12/29 11:00:12;;;;;;;5.55;3.08;;;9.40;51.50;;;;;;5098033;28;20172;-49
2021/12/29 11:02:39;;;;;;;12.07;5.07;;;9.50;51.50;;;;;;5097130;28;20157;-50
2021/12/29 11:05:09;;;;;;;7.40;4.20;;;9.40;52.00;;;;;;5097853;28;20281;-50
2021/12/29 11:07:38;;;;;;;5.68;2.85;;;9.40;51.70;;;;;;5097097;28;20590;-49
2021/12/29 11:10:17;;;;;;;4.30;2.75;;;9.50;52.00;;;;;;5097818;28;20172;-49
2021/12/29 11:12:49;;;;;;;3.72;2.92;;;9.50;51.80;;;;;;5098125;28;20147;-49
2021/12/29 11:15:33;;;;;;;6.93;3.90;;;9.50;51.80;;;;;;5096979;28;20173;-49
2021/12/29 11:18:07;;;;;;;8.02;3.92;;;9.50;51.80;;;;;;5096901;28;20159;-49
2021/12/29 11:20:36;;;;;;;4.53;2.42;;;9.50;51.70;;;;;;5097932;28;20593;-49
2021/12/29 11:23:14;;;;;;;8.15;4.38;;;9.60;51.60;;;;;;5096744;28;20681;-49
2021/12/29 11:25:44;;;;;;;5.25;3.47;;;9.60;51.60;;;;;;5097549;28;20191;-50
2021/12/29 11:28:40;;;;;;;7.05;3.95;;;9.70;51.70;;;;;;5096623;28;20671;-49
2021/12/29 11:31:11;;;;;;;10.93;4.57;;;9.60;51.40;;;;;;5080770;28;20313;-49
2021/12/29 11:33:38;;;;;;;8.32;4.45;;;9.60;51.60;;;;;;5097942;28;20178;-50
2021/12/29 11:36:06;;;;;;;5.90;3.35;;;9.70;51.70;;;;;;5097672;28;20167;-49
2021/12/29 11:38:34;;;;;;;6.90;3.72;;;9.70;51.70;;;;;;5096466;28;20165;-49
2021/12/29 11:41:04;;;;;;;22.83;4.50;;;9.70;51.60;;;;;;5096440;28;20243;-47
2021/12/29 11:43:32;;;;;;;4.43;2.58;;;9.70;51.60;;;;;;5096332;28;20267;-47
2021/12/29 11:46:00;;;;;;;10.52;4.90;;;9.70;51.80;;;;;;5096238;28;20276;-48
2021/12/29 11:48:29;;;;;;;5.55;2.63;;;9.70;51.80;;;;;;5097172;28;20535;-47
2021/12/29 11:50:59;;;;;;;10.23;4.72;;;9.70;51.90;;;;;;5096351;28;20161;-47
2021/12/29 11:53:48;;;;;;;9.80;4.78;;;9.70;52.10;;;;;;5096608;28;20186;-47
2021/12/29 11:56:19;;;;;;;7.15;3.47;;;9.70;52.40;;;;;;5096370;28;20161;-47
2021/12/29 11:58:48;;;;;;;7.57;4.03;;;9.60;52.40;;;;;;5096978;28;20186;-48
2021/12/29 12:01:27;;;;;;;9.65;4.20;;;9.60;52.40;;;;;;5079670;28;20160;-47
2021/12/29 12:04:06;;;;;;;6.32;3.33;;;9.70;52.30;;;;;;5096001;28;20522;-47
2021/12/29 12:06:38;;;;;;;6.82;4.05;;;9.70;52.30;;;;;;5095898;28;20183;-47
2021/12/29 12:09:15;;;;;;;7.30;3.92;;;9.80;52.20;;;;;;5096947;28;20236;-47
2021/12/29 12:12:00;;;;;;;7.43;4.50;;;9.80;52.20;;;;;;5095988;28;20161;-48
2021/12/29 12:14:34;;;;;;;6.18;3.65;;;9.80;52.00;;;;;;5095747;28;20592;-47
2021/12/29 12:17:12;;;;;;;6.55;3.78;;;9.80;52.00;;;;;;5095934;28;20244;-46
2021/12/29 12:19:39;;;;;;;6.07;3.53;;;9.80;51.90;;;;;;5096836;28;20171;-47
2021/12/29 12:22:13;;;;;;;6.45;4.13;;;9.80;52.00;;;;;;5079302;28;20164;-48
2021/12/29 12:25:05;;;;;;;3.90;3.47;;;9.80;52.10;;;;;;5095509;28;20187;-47
2021/12/29 12:27:39;;;;;;;5.55;4.05;;;9.80;52.50;;;;;;5095587;28;20533;-48
2021/12/29 12:30:27;;;;;;;9.45;5.15;;;9.70;52.30;;;;;;5062432;28;20262;-46
2021/12/29 12:32:57;;;;;;;4.60;3.38;;;9.70;52.80;;;;;;5096400;28;20510;-47
2021/12/29 12:35:36;;;;;;;10.82;3.88;;;9.70;53.00;;;;;;5096057;28;20277;-46
2021/12/29 12:38:33;;;;;;;9.38;4.85;;;9.70;52.80;;;;;;5095518;28;20182;-46
2021/12/29 12:41:10;;;;;;;2.78;2.25;;;9.70;52.90;;;;;;5095831;28;20652;-47
2021/12/29 12:44:00;;;;;;;11.57;4.78;;;9.70;52.80;;;;;;5095267;28;20181;-47
2021/12/29 12:46:47;;;;;;;13.85;5.50;;;9.70;52.70;;;;;;5095287;28;20200;-47
2021/12/29 12:49:23;;;;;;;9.35;4.93;;;9.80;52.70;;;;;;5096147;28;20160;-46
2021/12/29 12:52:12;;;;;;;12.02;3.67;;;9.80;52.90;;;;;;5096180;28;20161;-48
2021/12/29 12:54:53;;;;;;;4.85;2.90;;;9.80;52.80;;;;;;5096058;28;20250;-47
2021/12/29 12:57:40;;;;;;;7.45;4.47;;;9.80;52.90;;;;;;5079610;28;20160;-48
2021/12/29 13:00:24;;;;;;;7.60;3.00;;;9.80;52.90;;;;;;5095232;28;20218;-47
2021/12/29 13:02:56;;;;;;;6.13;3.83;;;9.80;53.00;;;;;;5095973;28;20182;-47
2021/12/29 13:05:34;;;;;;;7.35;5.45;;;9.80;53.00;;;;;;5094620;28;20227;-47
2021/12/29 13:08:14;;;;;;;6.93;3.03;;;9.90;53.10;;;;;;5094799;28;20227;-47
2021/12/29 13:10:46;;;;;;;8.15;3.72;;;9.90;53.40;;;;;;5094614;28;20166;-47
2021/12/29 13:13:18;;;;;;;10.02;4.22;;;9.90;53.10;;;;;;5095673;28;20182;-47
2021/12/29 13:15:49;;;;;;;7.57;4.60;;;9.90;53.00;;;;;;5095382;28;20470;-47